Unquillo, Argentina
Current Conditions -  °F | °C
As of 5:00 PM on Monday 24 Nov 2014 (Local Time) from SACO Reporting Station
Few Clouds Few Clouds  
Wind Chill: 24°   Ceiling: Unl
Heat Index: 24°   Visibility: 6mi
Dew Point:   Wind: 20mph
Humidity: 22%   Direction: 180°S
Pressure: 29.88"   Gusts: 32mph
Location:  31.23°S, 64.32°W
Report Text: SACO 242000Z 18017G28KT 9999 FEW03024/01 Q1012
Loading
Personal Weather Stations






























Interactive Weather Map New forecast layout! Learn more

10-Day Weather Forecast

Advertisements
Track Severe Weather on mobile